Time;durP1;ratioP1;P1;durP2;ratioP2;P2;SDS_P1;SDS_P2;PMS_P1;PMS_P2;Temp;Humidity;BMP_temperature;BMP_pressure;BME280_temperature;BME280_humidity;BME280_pressure;Samples;Min_cycle;Max_cycle;Signal;HPM_P1;HPM_P2
2022/05/08 00:00:14;;;;;;;4.55;2.03;;;19.90;51.20;;;;;;5063835;28;43970;-62
2022/05/08 00:02:42;;;;;;;2.10;1.48;;;19.90;51.20;;;;;;5071583;28;43984;-61
2022/05/08 00:05:14;;;;;;;3.70;1.83;;;19.80;51.10;;;;;;5069664;28;43585;-61
2022/05/08 00:07:41;;;;;;;2.35;1.73;;;19.90;51.20;;;;;;5069264;28;43498;-60
2022/05/08 00:10:09;;;;;;;2.90;1.58;;;19.80;51.10;;;;;;5067742;28;44525;-62
2022/05/08 00:12:36;;;;;;;3.22;1.88;;;19.80;51.20;;;;;;5069850;27;43508;-61
2022/05/08 00:15:05;;;;;;;3.17;1.70;;;19.80;51.10;;;;;;5069358;28;43511;-61
2022/05/08 00:17:34;;;;;;;2.58;1.70;;;19.80;51.10;;;;;;5069128;28;43517;-62
2022/05/08 00:20:07;;;;;;;2.83;1.80;;;19.80;51.20;;;;;;5073805;28;44180;-62
2022/05/08 00:22:34;;;;;;;2.55;1.42;;;19.80;51.10;;;;;;5069963;27;43525;-61
2022/05/08 00:25:03;;;;;;;2.97;1.50;;;19.80;51.10;;;;;;5069523;28;43426;-62
2022/05/08 00:27:31;;;;;;;2.65;1.60;;;19.80;51.10;;;;;;5065238;28;43522;-61
2022/05/08 00:29:58;;;;;;;3.63;1.80;;;19.80;51.10;;;;;;5071459;27;44427;-62
2022/05/08 00:32:26;;;;;;;2.95;1.80;;;19.70;51.00;;;;;;5068042;28;43509;-62
2022/05/08 00:34:55;;;;;;;2.65;1.70;;;19.70;51.10;;;;;;5068936;28;43409;-61
2022/05/08 00:37:24;;;;;;;3.25;1.75;;;19.70;51.10;;;;;;5064426;28;43973;-61
2022/05/08 00:39:52;;;;;;;2.55;1.42;;;19.70;51.00;;;;;;5066023;28;44069;-61
2022/05/08 00:42:20;;;;;;;1.80;1.58;;;19.80;51.10;;;;;;5068574;27;43975;-61
2022/05/08 00:44:48;;;;;;;2.92;1.40;;;19.70;51.00;;;;;;5068739;28;43407;-61
2022/05/08 00:47:16;;;;;;;3.85;1.80;;;19.70;51.00;;;;;;5064759;28;43633;-62
2022/05/08 00:49:44;;;;;;;3.83;2.17;;;19.70;51.10;;;;;;5065479;28;44659;-61
2022/05/08 00:52:15;;;;;;;3.05;1.65;;;19.70;51.10;;;;;;5068430;28;43851;-61
2022/05/08 00:54:43;;;;;;;3.00;1.70;;;19.60;51.00;;;;;;5067545;28;43458;-61
2022/05/08 00:57:11;;;;;;;3.10;1.73;;;19.60;51.10;;;;;;5068687;28;44028;-61
2022/05/08 00:59:39;;;;;;;2.80;1.65;;;19.60;51.10;;;;;;5069442;28;44994;-61
2022/05/08 01:02:07;;;;;;;2.78;1.70;;;19.60;51.10;;;;;;5065995;28;43486;-62
2022/05/08 01:04:35;;;;;;;3.22;1.67;;;19.60;51.10;;;;;;5066160;28;43476;-61
2022/05/08 01:07:04;;;;;;;3.03;1.60;;;19.60;51.10;;;;;;5076253;28;43487;-61
2022/05/08 01:09:32;;;;;;;3.35;1.77;;;19.60;51.10;;;;;;5070423;28;43739;-62
2022/05/08 01:11:59;;;;;;;2.30;1.60;;;19.60;51.10;;;;;;5067742;28;44059;-61
2022/05/08 01:14:27;;;;;;;3.97;1.80;;;19.60;51.20;;;;;;5062620;28;43438;-62
2022/05/08 01:16:55;;;;;;;2.90;1.65;;;19.50;51.10;;;;;;5067792;28;43447;-61
2022/05/08 01:19:23;;;;;;;2.97;1.80;;;19.50;51.10;;;;;;5070700;27;43811;-62
2022/05/08 01:21:50;;;;;;;2.95;1.77;;;19.50;51.10;;;;;;5067524;28;43502;-61
2022/05/08 01:24:22;;;;;;;2.65;1.58;;;19.50;51.10;;;;;;5067402;28;43487;-61
2022/05/08 01:26:50;;;;;;;3.05;1.50;;;19.50;51.10;;;;;;5066712;28;43515;-62
2022/05/08 01:29:18;;;;;;;2.22;1.80;;;19.50;51.10;;;;;;5069407;28;44311;-62
2022/05/08 01:31:46;;;;;;;3.33;1.85;;;19.50;51.10;;;;;;5068272;28;43488;-62
2022/05/08 01:34:13;;;;;;;1.98;1.40;;;19.40;51.10;;;;;;5066461;28;43486;-62
2022/05/08 01:36:42;;;;;;;2.22;1.30;;;19.40;51.10;;;;;;5066191;28;43566;-62
2022/05/08 01:39:09;;;;;;;3.85;1.58;;;19.50;51.20;;;;;;5068390;28;44946;-61
2022/05/08 01:41:37;;;;;;;2.65;1.60;;;19.40;51.20;;;;;;5064957;28;43534;-61
2022/05/08 01:44:04;;;;;;;3.20;1.60;;;19.40;51.20;;;;;;5067766;28;43378;-61
2022/05/08 01:46:32;;;;;;;2.03;1.30;;;19.40;51.10;;;;;;5069686;28;43982;-60
2022/05/08 01:48:59;;;;;;;3.10;1.60;;;19.40;51.10;;;;;;5064632;27;44438;-61
2022/05/08 01:51:27;;;;;;;2.38;1.25;;;19.40;51.10;;;;;;5064024;28;43572;-62
2022/05/08 01:53:54;;;;;;;2.00;1.50;;;19.40;51.10;;;;;;5068443;28;43404;-62
2022/05/08 01:56:22;;;;;;;3.22;1.60;;;19.40;51.00;;;;;;5069823;28;43577;-61
2022/05/08 01:58:49;;;;;;;3.45;1.67;;;19.40;51.10;;;;;;5064613;28;45798;-62
2022/05/08 02:01:17;;;;;;;1.85;1.30;;;19.30;51.10;;;;;;5067525;28;43562;-62
2022/05/08 02:03:45;;;;;;;1.60;1.42;;;19.30;51.10;;;;;;5068052;28;43417;-62
2022/05/08 02:06:18;;;;;;;2.47;1.55;;;19.30;51.20;;;;;;5070268;28;43617;-61
2022/05/08 02:08:46;;;;;;;2.28;1.38;;;19.30;51.10;;;;;;5079423;27;44006;-61
2022/05/08 02:11:13;;;;;;;1.55;1.30;;;19.30;51.10;;;;;;5067447;28;43473;-61
2022/05/08 02:13:41;;;;;;;2.10;1.40;;;19.30;51.10;;;;;;5062732;28;43434;-62
2022/05/08 02:16:11;;;;;;;2.63;1.42;;;19.30;51.10;;;;;;5070190;28;43562;-61
2022/05/08 02:18:38;;;;;;;2.65;1.83;;;19.30;51.20;;;;;;5062569;28;44007;-61
2022/05/08 02:21:06;;;;;;;2.05;1.15;;;19.30;51.20;;;;;;5069276;28;43995;-61
2022/05/08 02:23:33;;;;;;;2.50;1.35;;;19.20;51.10;;;;;;5067538;28;43561;-61
2022/05/08 02:26:01;;;;;;;1.95;1.30;;;19.30;51.10;;;;;;5069496;28;43608;-61
2022/05/08 02:28:28;;;;;;;3.63;1.65;;;19.20;51.00;;;;;;5061890;28;44114;-61
2022/05/08 02:30:56;;;;;;;2.90;1.42;;;19.20;51.10;;;;;;5066465;28;43681;-61
2022/05/08 02:33:23;;;;;;;2.03;1.35;;;19.20;51.10;;;;;;5062409;28;43594;-61
2022/05/08 02:35:51;;;;;;;2.47;1.60;;;19.20;51.30;;;;;;5067796;28;43511;-61
2022/05/08 02:38:19;;;;;;;2.25;1.40;;;19.20;51.10;;;;;;5066764;28;45099;-61
2022/05/08 02:40:47;;;;;;;1.90;1.27;;;19.20;51.10;;;;;;5066829;28;43525;-61
2022/05/08 02:43:17;;;;;;;2.50;1.30;;;19.20;51.20;;;;;;5067458;28;43384;-62
2022/05/08 02:45:45;;;;;;;2.67;1.43;;;19.20;51.10;;;;;;5061819;28;43608;-61
2022/05/08 02:48:13;;;;;;;2.13;1.33;;;19.20;51.10;;;;;;5066515;28;43944;-62
2022/05/08 02:50:42;;;;;;;1.90;1.45;;;19.20;51.10;;;;;;5066842;28;43504;-61
2022/05/08 02:53:11;;;;;;;2.83;1.57;;;19.10;51.10;;;;;;5066906;28;43476;-61
2022/05/08 02:58:33;;;;;;;2.70;1.45;;;19.10;51.10;;;;;;5059470;28;43784;-61
2022/05/08 03:01:01;;;;;;;2.40;1.50;;;19.10;51.10;;;;;;5067213;28;43967;-61
2022/05/08 03:03:30;;;;;;;1.80;1.42;;;19.10;51.10;;;;;;5067664;27;43493;-62
2022/05/08 03:05:57;;;;;;;2.83;1.30;;;19.10;51.10;;;;;;5067440;28;43458;-62
2022/05/08 03:08:25;;;;;;;1.55;1.30;;;19.10;51.10;;;;;;5066122;28;44032;-61
2022/05/08 03:13:40;;;;;;;1.85;1.20;;;19.00;51.00;;;;;;5063959;28;43403;-61
2022/05/08 03:16:11;;;;;;;1.90;1.30;;;19.00;51.10;;;;;;5065023;28;43544;-62
2022/05/08 03:18:40;;;;;;;1.30;1.20;;;19.00;51.10;;;;;;5062826;28;44975;-62
2022/05/08 03:21:09;;;;;;;1.75;1.10;;;19.00;51.00;;;;;;5063910;28;43462;-61
2022/05/08 03:23:40;;;;;;;2.00;1.17;;;19.00;51.10;;;;;;5063727;28;43431;-61
2022/05/08 03:26:08;;;;;;;2.33;1.10;;;19.00;51.00;;;;;;5066858;28;44171;-61
2022/05/08 03:28:40;;;;;;;2.45;1.30;;;19.00;51.00;;;;;;5066067;28;43699;-61
2022/05/08 03:31:09;;;;;;;2.03;1.20;;;19.00;51.10;;;;;;5068258;28;43506;-61
2022/05/08 03:33:37;;;;;;;2.03;1.27;;;19.00;51.00;;;;;;5083877;27;43444;-61
2022/05/08 03:36:10;;;;;;;1.90;1.20;;;19.00;51.00;;;;;;5070425;28;43601;-61
2022/05/08 03:38:42;;;;;;;1.35;1.23;;;19.00;51.10;;;;;;5065937;28;44014;-60
2022/05/08 03:41:15;;;;;;;1.52;1.30;;;19.00;51.10;;;;;;5066248;28;43511;-62
2022/05/08 03:43:46;;;;;;;2.33;1.35;;;18.90;51.00;;;;;;5068597;28;43446;-61
2022/05/08 03:46:14;;;;;;;;;;;18.90;51.00;;;;;;5066203;28;43569;-61
2022/05/08 03:48:42;;;;;;;2.03;1.27;;;18.90;51.00;;;;;;5069803;27;44994;-61
2022/05/08 03:51:10;;;;;;;1.20;0.93;;;18.90;51.10;;;;;;5061696;28;43524;-61
2022/05/08 03:53:41;;;;;;;3.22;1.20;;;18.90;51.00;;;;;;5070004;28;43622;-61
2022/05/08 03:56:09;;;;;;;2.35;1.40;;;18.90;51.00;;;;;;5070565;28;43632;-61
2022/05/08 03:58:42;;;;;;;1.48;1.13;;;18.90;51.10;;;;;;5069806;28;44553;-61
2022/05/08 04:01:10;;;;;;;2.35;1.30;;;18.90;51.00;;;;;;5084536;27;43399;-61
2022/05/08 04:03:38;;;;;;;1.27;1.10;;;18.90;51.00;;;;;;5069919;28;44054;-61
2022/05/08 04:06:05;;;;;;;1.50;1.13;;;18.80;51.00;;;;;;5071631;28;43637;-61
2022/05/08 04:08:33;;;;;;;1.35;1.13;;;18.80;50.90;;;;;;5066512;28;44046;-60
2022/05/08 04:11:02;;;;;;;0.98;0.80;;;18.80;51.00;;;;;;5069004;28;43487;-61
2022/05/08 04:13:29;;;;;;;1.73;1.10;;;18.80;51.00;;;;;;5065256;28;43988;-61
2022/05/08 04:18:44;;;;;;;1.88;1.13;;;18.80;51.00;;;;;;5079032;27;43631;-61
2022/05/08 04:21:12;;;;;;;1.83;1.00;;;18.80;51.00;;;;;;5069194;28;43514;-61
2022/05/08 04:26:26;;;;;;;1.50;1.23;;;18.80;51.00;;;;;;5068447;28;43586;-61
2022/05/08 04:28:53;;;;;;;1.83;0.98;;;18.80;51.00;;;;;;5065134;28;44062;-61
2022/05/08 04:31:22;;;;;;;1.20;1.02;;;18.80;51.00;;;;;;5069431;28;43556;-61
2022/05/08 04:33:49;;;;;;;1.42;1.23;;;18.80;51.10;;;;;;5072255;28;43435;-60
2022/05/08 04:36:18;;;;;;;1.73;1.30;;;18.80;51.00;;;;;;5067384;28;43627;-62
2022/05/08 04:38:45;;;;;;;1.63;1.10;;;18.80;51.10;;;;;;5070462;28;43984;-61
2022/05/08 04:41:13;;;;;;;1.40;0.90;;;18.80;51.00;;;;;;5069358;28;43410;-61
2022/05/08 04:43:40;;;;;;;1.73;1.08;;;18.80;51.00;;;;;;5068268;28;43531;-61
2022/05/08 04:46:09;;;;;;;1.30;0.98;;;18.70;50.90;;;;;;5066157;28;43521;-61
2022/05/08 04:48:38;;;;;;;1.40;1.00;;;18.70;50.90;;;;;;5068243;28;44601;-61
2022/05/08 04:51:05;;;;;;;1.17;1.08;;;18.70;50.90;;;;;;5069033;28;43399;-61
2022/05/08 04:53:32;;;;;;;0.95;0.80;;;18.70;50.90;;;;;;5071770;28;43416;-61
2022/05/08 04:56:00;;;;;;;1.65;1.30;;;18.70;50.90;;;;;;5066454;28;43463;-62
2022/05/08 04:58:31;;;;;;;1.23;0.93;;;18.70;50.90;;;;;;5067649;28;43809;-61
2022/05/08 05:00:58;;;;;;;1.40;0.90;;;18.70;51.00;;;;;;5069123;28;43730;-61
2022/05/08 05:03:27;;;;;;;2.22;1.10;;;18.70;50.90;;;;;;5070556;27;43390;-61
2022/05/08 05:05:55;;;;;;;1.75;1.10;;;18.70;50.90;;;;;;5068222;28;44125;-61
2022/05/08 05:08:22;;;;;;;1.30;1.00;;;18.70;50.90;;;;;;5068644;28;44953;-61
2022/05/08 05:10:49;;;;;;;1.50;0.90;;;18.70;50.90;;;;;;5069177;28;43391;-61
2022/05/08 05:13:17;;;;;;;1.13;0.73;;;18.70;50.90;;;;;;5068927;27;43436;-61
2022/05/08 05:15:45;;;;;;;1.40;1.10;;;18.60;50.90;;;;;;5067970;28;43506;-62
2022/05/08 05:18:12;;;;;;;2.05;1.10;;;18.60;50.90;;;;;;5067837;28;45316;-62
2022/05/08 05:20:40;;;;;;;1.15;1.00;;;18.60;50.90;;;;;;5071867;28;43955;-61
2022/05/08 05:23:07;;;;;;;2.45;1.10;;;18.70;50.90;;;;;;5068694;27;43437;-61
2022/05/08 05:25:35;;;;;;;1.98;1.00;;;18.60;50.90;;;;;;5068554;28;43475;-61
2022/05/08 05:28:02;;;;;;;1.42;1.00;;;18.60;50.90;;;;;;5067379;28;44718;-61
2022/05/08 05:30:35;;;;;;;1.77;1.00;;;18.60;50.90;;;;;;5069207;28;43673;-62
2022/05/08 05:33:03;;;;;;;1.77;1.02;;;18.60;50.90;;;;;;5069284;27;43459;-61
2022/05/08 05:35:31;;;;;;;1.90;1.17;;;18.60;50.90;;;;;;5068277;28;43450;-61
2022/05/08 05:38:00;;;;;;;2.50;1.15;;;18.60;50.90;;;;;;5067412;28;43782;-62
2022/05/08 05:40:28;;;;;;;0.85;0.82;;;18.60;50.90;;;;;;5069289;28;43496;-61
2022/05/08 05:42:57;;;;;;;1.25;1.15;;;18.60;50.90;;;;;;5068782;27;43478;-62
2022/05/08 05:45:25;;;;;;;2.50;1.10;;;18.60;50.90;;;;;;5067604;28;43548;-63
2022/05/08 05:47:53;;;;;;;1.65;1.10;;;18.60;51.00;;;;;;5046413;28;45427;-61
2022/05/08 05:50:21;;;;;;;2.17;1.17;;;18.60;51.00;;;;;;5066663;28;44032;-61
2022/05/08 05:52:50;;;;;;;2.30;0.90;;;18.60;51.00;;;;;;5066991;28;43467;-62
2022/05/08 05:55:19;;;;;;;2.22;1.20;;;18.60;51.00;;;;;;5067479;28;43549;-60
2022/05/08 05:57:46;;;;;;;1.27;1.00;;;18.60;51.00;;;;;;5067944;28;44942;-61
2022/05/08 06:00:16;;;;;;;2.58;0.93;;;18.60;51.00;;;;;;5069047;28;43713;-61
2022/05/08 06:02:46;;;;;;;1.02;0.90;;;18.50;51.00;;;;;;5068871;27;43572;-61
2022/05/08 06:05:15;;;;;;;1.43;0.97;;;18.50;51.00;;;;;;5063394;28;43529;-61
2022/05/08 06:07:44;;;;;;;3.30;1.00;;;18.50;51.00;;;;;;5061221;28;45000;-61
2022/05/08 06:10:14;;;;;;;1.70;1.10;;;18.50;51.00;;;;;;5068536;28;43952;-62
2022/05/08 06:12:41;;;;;;;1.25;0.95;;;18.50;51.00;;;;;;5064477;28;43453;-62
2022/05/08 06:15:10;;;;;;;1.67;0.95;;;18.50;51.00;;;;;;5067394;28;43443;-61
2022/05/08 06:17:38;;;;;;;1.85;1.15;;;18.50;51.00;;;;;;5066434;28;43797;-61
2022/05/08 06:20:06;;;;;;;3.22;1.40;;;18.50;51.00;;;;;;5067954;28;44166;-61
2022/05/08 06:22:35;;;;;;;1.85;1.10;;;18.50;51.10;;;;;;5066071;28;43390;-61
2022/05/08 06:25:04;;;;;;;1.67;0.88;;;18.50;51.10;;;;;;5062296;28;43584;-61
2022/05/08 06:27:31;;;;;;;1.42;1.00;;;18.50;51.10;;;;;;5063890;28;43816;-61
2022/05/08 06:30:01;;;;;;;2.35;1.10;;;18.50;51.10;;;;;;5064769;27;43460;-60
2022/05/08 06:32:29;;;;;;;;;;;18.50;51.10;;;;;;5063742;28;44123;-62
2022/05/08 06:35:10;;;;;;;1.40;0.90;;;18.50;51.10;;;;;;5064587;28;43523;-61
2022/05/08 06:37:37;;;;;;;1.88;1.10;;;18.50;51.20;;;;;;5066796;28;43810;-61
2022/05/08 06:40:06;;;;;;;2.00;1.10;;;18.50;51.20;;;;;;5066798;28;44107;-61
2022/05/08 06:42:33;;;;;;;2.00;1.13;;;18.50;51.20;;;;;;5066453;28;43552;-61
2022/05/08 06:45:02;;;;;;;1.85;0.93;;;18.50;51.10;;;;;;5057548;28;43642;-61
2022/05/08 06:47:30;;;;;;;1.10;1.00;;;18.50;51.10;;;;;;5064191;28;43814;-61
2022/05/08 06:49:58;;;;;;;1.30;1.10;;;18.50;51.10;;;;;;5065735;28;43526;-62
2022/05/08 06:52:25;;;;;;;2.47;1.00;;;18.50;51.20;;;;;;5065072;28;44042;-61
2022/05/08 06:54:53;;;;;;;1.73;0.95;;;18.50;51.80;;;;;;5067283;28;43541;-60
2022/05/08 06:57:22;;;;;;;4.93;1.10;;;18.50;51.20;;;;;;5063326;28;44133;-60
2022/05/08 07:02:42;;;;;;;11.90;1.90;;;18.50;51.10;;;;;;5060694;28;43416;-61
2022/05/08 07:05:10;;;;;;;6.32;2.00;;;18.60;51.20;;;;;;5068403;28;43525;-61
2022/05/08 07:07:37;;;;;;;3.60;1.98;;;18.60;51.20;;;;;;5070924;27;43820;-61
2022/05/08 07:10:05;;;;;;;4.28;1.70;;;18.60;51.30;;;;;;5070838;28;43381;-61
2022/05/08 07:12:34;;;;;;;4.18;2.17;;;18.70;51.00;;;;;;5069664;28;43473;-60
2022/05/08 07:15:03;;;;;;;4.65;1.60;;;18.80;51.10;;;;;;5082136;27;43442;-62
2022/05/08 07:17:31;;;;;;;2.40;1.40;;;18.90;51.10;;;;;;5070827;28;44864;-61
2022/05/08 07:19:59;;;;;;;4.07;1.70;;;19.10;50.90;;;;;;5075082;28;43502;-61
2022/05/08 07:22:26;;;;;;;3.85;1.55;;;19.30;50.90;;;;;;5074931;28;43493;-61
2022/05/08 07:24:54;;;;;;;2.00;1.35;;;19.50;50.60;;;;;;5070682;28;43472;-61
2022/05/08 07:27:21;;;;;;;2.72;1.20;;;19.70;50.40;;;;;;5071940;28;43772;-61
2022/05/08 07:29:52;;;;;;;5.05;1.77;;;19.90;50.10;;;;;;5071301;27;43748;-60
2022/05/08 07:32:19;;;;;;;3.35;1.35;;;20.00;49.90;;;;;;5067906;28;43442;-61
2022/05/08 07:37:33;;;;;;;2.30;1.20;;;20.40;49.60;;;;;;5066271;28;43886;-62
2022/05/08 07:40:00;;;;;;;1.77;1.02;;;20.50;49.30;;;;;;5069356;28;43952;-60
2022/05/08 07:42:28;;;;;;;1.95;1.15;;;20.70;49.20;;;;;;5069383;28;43463;-61
2022/05/08 07:44:56;;;;;;;2.25;1.52;;;20.80;49.00;;;;;;5070533;27;43521;-61
2022/05/08 07:47:24;;;;;;;2.05;1.27;;;21.00;48.70;;;;;;5077402;27;44115;-61
2022/05/08 07:49:52;;;;;;;1.80;1.30;;;21.20;48.60;;;;;;5066495;28;44076;-61
2022/05/08 07:52:19;;;;;;;3.50;1.30;;;21.30;48.40;;;;;;5069149;28;43377;-61
2022/05/08 07:54:47;;;;;;;2.80;1.30;;;21.40;48.10;;;;;;5071360;27;43529;-61
2022/05/08 07:57:15;;;;;;;2.95;1.42;;;21.50;48.00;;;;;;5069240;28;44675;-61
2022/05/08 07:59:42;;;;;;;3.42;1.42;;;21.60;48.00;;;;;;5068585;28;43692;-61
2022/05/08 08:02:10;;;;;;;5.65;1.60;;;21.60;48.00;;;;;;5072240;28;43461;-61
2022/05/08 08:04:38;;;;;;;7.55;1.60;;;21.70;48.00;;;;;;5070766;27;43601;-61
2022/05/08 08:07:06;;;;;;;4.65;1.40;;;21.80;48.30;;;;;;5069626;28;43795;-62
2022/05/08 08:09:33;;;;;;;3.97;1.30;;;21.90;48.60;;;;;;5068062;28;43351;-61
2022/05/08 08:12:01;;;;;;;5.88;1.60;;;22.00;48.50;;;;;;5072058;28;43492;-59
2022/05/08 08:14:29;;;;;;;4.18;1.38;;;22.20;48.60;;;;;;5070279;27;43466;-61
2022/05/08 08:17:16;;;;;;;3.85;1.50;;;22.30;48.20;;;;;;5061249;27;44436;-62
2022/05/08 08:19:50;;;;;;;2.90;1.40;;;22.50;48.10;;;;;;5070071;28;43711;-61
2022/05/08 08:22:18;;;;;;;4.20;1.45;;;22.60;47.80;;;;;;5070168;27;43505;-60
2022/05/08 08:24:46;;;;;;;2.40;1.25;;;22.70;47.60;;;;;;5064630;28;44096;-61
2022/05/08 08:27:16;;;;;;;2.88;1.40;;;22.90;47.40;;;;;;5068180;28;44197;-60
2022/05/08 08:29:44;;;;;;;4.22;1.40;;;22.90;47.30;;;;;;5068306;28;43400;-61
2022/05/08 08:32:11;;;;;;;6.45;1.67;;;23.10;47.10;;;;;;5070056;27;43513;-62
2022/05/08 08:34:39;;;;;;;3.35;1.40;;;23.10;46.90;;;;;;5069364;28;43586;-61
2022/05/08 08:37:06;;;;;;;7.05;1.38;;;23.20;46.80;;;;;;5067853;28;45028;-61
2022/05/08 08:39:34;;;;;;;9.02;1.60;;;23.30;46.70;;;;;;5071662;28;43713;-59
2022/05/08 08:42:27;;;;;;;4.57;1.60;;;23.40;46.80;;;;;;5069996;27;43609;-60
2022/05/08 08:47:55;;;;;;;8.45;1.48;;;23.70;46.30;;;;;;5069458;28;43873;-61
2022/05/08 08:50:27;;;;;;;4.38;1.55;;;23.80;46.70;;;;;;5063538;28;43885;-61
2022/05/08 08:52:58;;;;;;;4.60;1.60;;;23.90;46.20;;;;;;5069923;28;43474;-61
2022/05/08 08:55:27;;;;;;;4.63;1.45;;;23.90;46.10;;;;;;5069272;28;43466;-61
2022/05/08 08:57:54;;;;;;;3.97;1.20;;;24.00;45.90;;;;;;5067221;28;44655;-61
2022/05/08 09:00:22;;;;;;;6.40;1.40;;;24.00;46.00;;;;;;5069090;28;43697;-61
2022/05/08 09:02:52;;;;;;;5.32;1.50;;;24.10;46.00;;;;;;5068462;28;43595;-62
2022/05/08 09:05:20;;;;;;;4.00;1.33;;;24.10;46.10;;;;;;5066615;28;43447;-62
2022/05/08 09:07:56;;;;;;;2.33;1.25;;;24.10;46.10;;;;;;5061737;28;44057;-62
2022/05/08 09:10:28;;;;;;;2.80;1.42;;;24.10;46.60;;;;;;5067491;28;43859;-62
2022/05/08 09:13:04;;;;;;;4.30;1.50;;;24.10;46.20;;;;;;5070286;28;44043;-62
2022/05/08 09:15:41;;;;;;;4.82;1.30;;;24.10;46.10;;;;;;5080884;27;43558;-62
2022/05/08 09:18:11;;;;;;;3.65;1.65;;;24.10;46.30;;;;;;5068011;28;43976;-62
2022/05/08 09:20:41;;;;;;;3.65;1.52;;;24.10;46.30;;;;;;5078638;28;43825;-61
2022/05/08 09:23:09;;;;;;;4.00;1.40;;;24.10;46.40;;;;;;5067138;27;43486;-61
2022/05/08 09:26:02;;;;;;;3.95;1.30;;;24.00;46.00;;;;;;5068604;28;43560;-61
2022/05/08 09:28:43;;;;;;;4.05;1.40;;;23.90;46.10;;;;;;5065156;28;43807;-61
2022/05/08 09:31:15;;;;;;;2.28;1.25;;;23.90;46.40;;;;;;5067760;28;43554;-61
2022/05/08 09:33:44;;;;;;;3.83;1.80;;;23.80;46.50;;;;;;5067960;28;43519;-62
2022/05/08 09:36:22;;;;;;;3.38;1.35;;;23.80;46.80;;;;;;5068324;28;43448;-61
2022/05/08 09:38:53;;;;;;;2.08;1.40;;;23.70;46.80;;;;;;5063631;28;44046;-61
2022/05/08 09:41:31;;;;;;;3.33;1.52;;;23.60;46.80;;;;;;5066837;28;43646;-62
2022/05/08 09:44:19;;;;;;;3.15;1.17;;;23.60;46.90;;;;;;5057381;28;43469;-61
2022/05/08 09:46:48;;;;;;;2.67;1.50;;;23.60;47.20;;;;;;5067424;28;43542;-62
2022/05/08 09:49:23;;;;;;;2.83;1.40;;;23.50;46.90;;;;;;5063304;28;44420;-62
2022/05/08 09:51:52;;;;;;;1.85;1.10;;;23.50;47.20;;;;;;5065669;28;43759;-61
2022/05/08 09:54:20;;;;;;;2.03;1.35;;;23.40;47.20;;;;;;5070068;28;43388;-61
2022/05/08 09:56:49;;;;;;;1.75;1.15;;;23.40;47.30;;;;;;5068019;28;43664;-62
2022/05/08 09:59:17;;;;;;;2.80;1.40;;;23.40;47.00;;;;;;5058752;28;44416;-63
2022/05/08 10:01:45;;;;;;;4.55;1.23;;;23.40;47.10;;;;;;5063196;28;43982;-63
2022/05/08 10:04:12;;;;;;;2.45;1.40;;;23.30;47.00;;;;;;5071034;28;44009;-63
2022/05/08 10:06:43;;;;;;;3.50;1.70;;;23.20;46.90;;;;;;5067973;28;43527;-63
2022/05/08 10:14:49;;;;;;;3.10;1.25;;;23.10;47.00;;;;;;5062233;28;43501;-63
2022/05/08 10:17:28;;;;;;;2.97;1.48;;;23.00;47.00;;;;;;5067434;28;44006;-63
2022/05/08 10:19:56;;;;;;;4.47;1.63;;;23.00;47.00;;;;;;5070157;28;44715;-61
2022/05/08 10:22:25;;;;;;;3.10;1.40;;;22.90;47.30;;;;;;5063582;28;43590;-63
2022/05/08 10:24:56;;;;;;;3.63;1.60;;;22.90;47.30;;;;;;5067476;28;43477;-63
2022/05/08 10:27:28;;;;;;;3.00;1.40;;;22.90;47.20;;;;;;5067431;28;43471;-63
2022/05/08 10:29:56;;;;;;;2.25;1.35;;;22.90;47.10;;;;;;5064290;28;45073;-64
2022/05/08 10:32:32;;;;;;;1.98;1.23;;;22.80;47.20;;;;;;5059726;28;43541;-63
2022/05/08 10:35:15;;;;;;;3.35;1.30;;;22.80;47.30;;;;;;5070633;27;43543;-63
2022/05/08 10:37:46;;;;;;;3.10;1.90;;;22.80;47.40;;;;;;5070287;27;43418;-63
2022/05/08 10:40:22;;;;;;;1.25;1.02;;;22.80;47.50;;;;;;5064709;28;44079;-63
2022/05/08 10:42:57;;;;;;;2.65;1.60;;;22.70;47.50;;;;;;5066768;28;43438;-63
2022/05/08 10:45:34;;;;;;;2.83;1.52;;;22.70;47.60;;;;;;5066171;28;43502;-63
2022/05/08 10:48:10;;;;;;;2.35;1.25;;;22.70;47.60;;;;;;5066798;28;43433;-63
2022/05/08 10:50:42;;;;;;;2.35;1.23;;;22.70;47.70;;;;;;5066910;28;44701;-64
2022/05/08 10:53:29;;;;;;;2.40;1.48;;;22.60;47.80;;;;;;5066593;28;43455;-63
2022/05/08 10:56:11;;;;;;;2.00;1.20;;;22.60;47.80;;;;;;5063154;28;43412;-63
2022/05/08 10:58:49;;;;;;;2.05;1.17;;;22.50;47.70;;;;;;5066723;28;43475;-63
2022/05/08 11:01:17;;;;;;;2.13;1.20;;;22.50;47.90;;;;;;5068660;28;43940;-63
2022/05/08 11:03:44;;;;;;;1.50;1.20;;;22.50;48.00;;;;;;5064611;28;43502;-63
2022/05/08 11:06:19;;;;;;;2.03;1.20;;;22.50;48.00;;;;;;5066473;28;43544;-63
2022/05/08 11:08:47;;;;;;;2.28;1.27;;;22.50;47.90;;;;;;5067099;28;43465;-63
2022/05/08 11:11:15;;;;;;;5.93;2.03;;;22.50;48.10;;;;;;5084138;27;44702;-63
2022/05/08 11:13:45;;;;;;;3.50;1.55;;;22.50;47.50;;;;;;5056233;28;43869;-63
2022/05/08 11:16:29;;;;;;;3.35;1.40;;;22.50;48.00;;;;;;5066500;28;43524;-63
2022/05/08 11:19:01;;;;;;;3.83;1.38;;;22.50;48.00;;;;;;5069574;28;43403;-64
2022/05/08 11:21:29;;;;;;;1.27;1.10;;;22.50;48.10;;;;;;5065206;28;44050;-64
2022/05/08 11:23:57;;;;;;;3.22;1.13;;;22.50;48.10;;;;;;5064325;28;43784;-63
2022/05/08 11:26:29;;;;;;;2.22;1.30;;;22.50;48.10;;;;;;5066255;28;43521;-63
2022/05/08 11:28:58;;;;;;;2.47;1.30;;;22.50;48.10;;;;;;5065033;28;43581;-63
2022/05/08 11:31:28;;;;;;;3.35;1.40;;;22.50;48.10;;;;;;5065159;28;45121;-63
2022/05/08 11:36:44;;;;;;;3.67;1.60;;;22.50;48.20;;;;;;5069254;28;43563;-63
2022/05/08 11:39:13;;;;;;;2.22;1.33;;;22.50;48.30;;;;;;5067337;28;43544;-63
2022/05/08 11:41:49;;;;;;;3.08;1.23;;;22.50;48.20;;;;;;5064548;28;43592;-63
2022/05/08 11:44:20;;;;;;;2.47;1.45;;;22.50;48.20;;;;;;5064291;28;43957;-63
2022/05/08 11:46:50;;;;;;;1.65;1.23;;;22.50;48.20;;;;;;5065145;28;43468;-63
2022/05/08 11:49:25;;;;;;;2.00;1.23;;;22.50;48.20;;;;;;5063686;28;43510;-63
2022/05/08 11:51:58;;;;;;;2.88;1.30;;;22.50;48.20;;;;;;5064359;28;44571;-63
2022/05/08 11:54:28;;;;;;;1.80;1.30;;;22.50;48.20;;;;;;5066598;28;43470;-63
2022/05/08 11:57:16;;;;;;;3.37;1.40;;;22.50;48.20;;;;;;5068851;28;43480;-63
2022/05/08 11:59:46;;;;;;;2.85;1.27;;;22.50;48.10;;;;;;5069398;28;43474;-63
2022/05/08 12:02:14;;;;;;;2.72;1.42;;;22.50;48.20;;;;;;5069158;28;44996;-63
2022/05/08 12:04:55;;;;;;;3.10;1.40;;;22.60;48.20;;;;;;5070097;28;43573;-63
2022/05/08 12:07:23;;;;;;;2.22;1.40;;;22.50;48.00;;;;;;5062994;28;44129;-62
2022/05/08 12:09:55;;;;;;;2.72;1.30;;;22.50;48.10;;;;;;5068233;28;44008;-63
2022/05/08 12:12:33;;;;;;;2.05;1.17;;;22.50;48.00;;;;;;5070519;28;43797;-63
2022/05/08 12:15:06;;;;;;;3.28;1.40;;;22.60;48.10;;;;;;5068956;28;43434;-63
2022/05/08 12:17:42;;;;;;;1.58;1.30;;;22.60;48.10;;;;;;5068606;28;43500;-63
2022/05/08 12:20:28;;;;;;;1.73;1.23;;;22.60;48.10;;;;;;5068282;27;43468;-63
2022/05/08 12:23:05;;;;;;;3.17;1.50;;;22.60;48.00;;;;;;5069797;28;44052;-64
2022/05/08 12:25:34;;;;;;;2.10;1.50;;;22.60;48.00;;;;;;5070092;28;43474;-63
2022/05/08 12:28:03;;;;;;;1.88;1.30;;;22.60;48.00;;;;;;5062365;27;43446;-63
2022/05/08 12:30:31;;;;;;;2.50;1.30;;;22.60;48.10;;;;;;5069445;28;43627;-63
2022/05/08 12:32:59;;;;;;;2.42;1.05;;;22.60;48.00;;;;;;5068773;28;44969;-64
2022/05/08 12:35:26;;;;;;;3.25;1.20;;;22.60;48.00;;;;;;5069807;28;43443;-64
2022/05/08 12:37:53;;;;;;;2.75;1.48;;;22.60;48.30;;;;;;5065557;28;43458;-64
2022/05/08 12:40:21;;;;;;;5.15;1.70;;;22.70;48.50;;;;;;5069206;28;43563;-64
2022/05/08 12:42:51;;;;;;;2.78;1.70;;;22.70;48.80;;;;;;5064679;28;43881;-63
2022/05/08 12:45:19;;;;;;;2.17;1.40;;;22.70;48.80;;;;;;5068769;28;43453;-63
2022/05/08 12:47:47;;;;;;;3.78;1.75;;;22.60;48.60;;;;;;5068222;28;43471;-63
2022/05/08 12:50:14;;;;;;;2.78;1.52;;;22.70;49.00;;;;;;5068369;28;43481;-64
2022/05/08 12:52:45;;;;;;;3.30;1.50;;;22.70;48.40;;;;;;5062547;28;44781;-63
2022/05/08 12:55:15;;;;;;;2.20;1.50;;;22.70;48.50;;;;;;5070350;28;43785;-63
2022/05/08 13:00:31;;;;;;;2.15;1.50;;;22.70;48.40;;;;;;5068680;28;43498;-63
2022/05/08 13:03:00;;;;;;;2.58;1.58;;;22.70;48.40;;;;;;5068606;28;44820;-63
2022/05/08 13:05:29;;;;;;;2.40;1.40;;;22.70;49.00;;;;;;5065899;27;43467;-64
2022/05/08 13:07:57;;;;;;;3.65;1.50;;;22.80;48.40;;;;;;5068335;28;43464;-63
2022/05/08 13:10:26;;;;;;;3.35;1.45;;;22.70;48.40;;;;;;5068474;28;43589;-63
2022/05/08 13:13:00;;;;;;;2.22;1.33;;;22.80;48.40;;;;;;5071087;28;44700;-63
2022/05/08 13:15:28;;;;;;;3.38;1.52;;;22.80;48.40;;;;;;5064184;28;43487;-63
2022/05/08 13:17:55;;;;;;;3.60;1.50;;;22.80;48.40;;;;;;5068446;28;43456;-63
2022/05/08 13:20:24;;;;;;;4.55;1.95;;;22.80;48.40;;;;;;5068890;28;43510;-64
2022/05/08 13:22:51;;;;;;;2.72;1.33;;;22.80;48.40;;;;;;5069883;28;43907;-63
2022/05/08 13:25:19;;;;;;;2.05;1.65;;;22.80;48.40;;;;;;5068345;28;43721;-63
2022/05/08 13:27:46;;;;;;;2.78;1.50;;;22.80;48.40;;;;;;5068132;28;43485;-64
2022/05/08 13:30:14;;;;;;;2.08;1.20;;;22.80;48.30;;;;;;5067967;28;43486;-64